Time;durP1;ratioP1;P1;durP2;ratioP2;P2;SDS_P1;SDS_P2;PMS_P1;PMS_P2;Temp;Humidity;BMP_temperature;BMP_pressure;BME280_temperature;BME280_humidity;BME280_pressure;Samples;Min_cycle;Max_cycle;Signal;HPM_P1;HPM_P2
2022/07/08 12:12:58;;;;;;;4.85;3.45;;;;;;;17.90;55.96;99925.09;5165670;27;20125;-69
2022/07/08 12:15:35;;;;;;;4.18;3.10;;;;;;;17.86;55.85;99927.16;5164617;27;20062;-70
2022/07/08 12:18:03;;;;;;;5.95;3.58;;;;;;;17.90;56.69;99919.75;5164633;27;20306;-70
2022/07/08 12:20:34;;;;;;;4.15;3.65;;;;;;;18.03;56.01;99928.56;5146227;27;20062;-70
2022/07/08 12:23:02;;;;;;;5.18;3.35;;;;;;;18.06;56.39;99927.47;5164144;27;20202;-70
2022/07/08 12:25:47;;;;;;;4.35;3.00;;;;;;;18.18;55.62;99930.06;5164398;27;20055;-70
2022/07/08 12:28:22;;;;;;;4.63;2.90;;;;;;;18.00;55.61;99923.44;5164107;27;20230;-71
2022/07/08 12:30:49;;;;;;;6.18;3.47;;;;;;;18.22;56.13;99939.56;5163958;27;20061;-72
2022/07/08 12:33:25;;;;;;;5.10;3.10;;;;;;;18.29;55.29;99939.94;5145967;27;20047;-71
2022/07/08 12:35:52;;;;;;;4.05;3.33;;;;;;;18.30;56.16;99930.06;5164090;27;20107;-71
2022/07/08 12:38:24;;;;;;;3.88;3.17;;;;;;;18.35;54.80;99943.97;5163897;27;20055;-71
2022/07/08 12:40:51;;;;;;;4.05;2.83;;;;;;;18.41;55.99;99938.13;5163379;27;20103;-71
2022/07/08 12:43:20;;;;;;;3.78;3.17;;;;;;;18.31;54.94;99918.38;5163292;27;20055;-71
2022/07/08 12:45:47;;;;;;;3.85;2.83;;;;;;;18.44;55.32;99943.25;5163722;27;20055;-71
2022/07/08 12:48:16;;;;;;;4.20;2.88;;;;;;;18.44;55.66;99944.13;5163627;27;20107;-72
2022/07/08 12:50:43;;;;;;;3.40;2.97;;;;;;;18.51;55.71;99948.03;5163279;27;20058;-72
2022/07/08 12:53:10;;;;;;;5.10;3.03;;;;;;;18.41;55.04;99930.09;5163644;27;20050;-71
2022/07/08 12:55:38;;;;;;;5.65;3.70;;;;;;;18.41;54.82;99949.72;5163318;27;20058;-71
2022/07/08 12:58:06;;;;;;;8.40;6.57;;;;;;;18.53;55.15;99938.06;5163509;27;20095;-71
2022/07/08 13:00:34;;;;;;;5.13;4.15;;;;;;;18.62;54.80;99946.34;5163195;27;20115;-71
2022/07/08 13:03:02;;;;;;;5.38;3.55;;;;;;;18.46;54.90;99926.06;5163146;27;20047;-71
2022/07/08 13:05:29;;;;;;;5.78;3.10;;;;;;;18.70;55.43;99946.59;5145317;27;20214;-71
2022/07/08 13:07:56;;;;;;;3.97;2.90;;;;;;;18.79;54.52;99944.03;5163367;27;20224;-71
2022/07/08 13:10:24;;;;;;;5.40;3.15;;;;;;;18.76;55.24;99940.75;5163264;27;20051;-71
2022/07/08 13:12:52;;;;;;;3.78;3.35;;;;;;;18.03;55.16;99892.84;5163093;27;20061;-71
2022/07/08 13:15:19;;;;;;;7.13;4.35;;;;;;;16.25;56.50;99541.28;5162660;27;20260;-72
2022/07/08 13:17:48;;;;;;;6.65;4.90;;;;;;;18.71;56.09;99954.53;5163198;27;20058;-71
2022/07/08 13:20:15;;;;;;;5.10;4.60;;;;;;;18.70;56.37;99960.03;5145205;27;20059;-71
2022/07/08 13:22:42;;;;;;;4.90;3.80;;;;;;;18.52;55.70;99919.38;5157896;27;20249;-71
2022/07/08 13:25:10;;;;;;;4.57;3.45;;;;;;;18.69;56.82;99961.84;5149259;27;20096;-72
2022/07/08 13:27:37;;;;;;;5.57;3.80;;;;;;;18.71;56.36;99953.69;5148796;27;20055;-71
2022/07/08 13:30:05;;;;;;;4.63;3.38;;;;;;;18.65;56.59;99938.91;5149251;27;20039;-72
2022/07/08 13:32:33;;;;;;;3.58;2.70;;;;;;;18.91;56.51;99958.31;5149050;27;20287;-72
2022/07/08 13:35:02;;;;;;;7.50;5.60;;;;;;;18.97;55.94;99967.72;5149063;27;20180;-72
2022/07/08 13:37:29;;;;;;;5.40;3.70;;;;;;;18.92;56.28;99960.88;5149070;27;20055;-72
2022/07/08 13:39:56;;;;;;;5.95;3.47;;;;;;;19.02;55.89;99965.50;5148481;27;20174;-72
2022/07/08 13:42:24;;;;;;;5.32;3.33;;;;;;;19.02;55.09;99960.16;5148642;27;20051;-70
2022/07/08 13:44:51;;;;;;;5.30;3.38;;;;;;;19.04;55.74;99960.88;5148529;27;20055;-71
2022/07/08 13:47:18;;;;;;;3.88;2.90;;;;;;;18.85;55.33;99918.53;5148644;27;20059;-71
2022/07/08 13:49:45;;;;;;;5.53;3.72;;;;;;;19.01;54.83;99928.88;5148399;27;20108;-71
2022/07/08 13:52:14;;;;;;;8.00;5.07;;;;;;;19.14;54.60;99925.06;5148459;27;20095;-72
2022/07/08 13:54:41;;;;;;;6.70;3.97;;;;;;;19.36;55.03;99936.75;5148395;27;20043;-72
2022/07/08 13:57:08;;;;;;;6.15;3.45;;;;;;;19.50;54.26;99950.78;5147861;27;20104;-72
2022/07/08 13:59:35;;;;;;;3.88;3.10;;;;;;;19.50;53.82;99953.47;5148292;27;20054;-72
2022/07/08 14:02:02;;;;;;;5.53;3.13;;;;;;;19.30;54.08;99932.75;5148107;27;20051;-71
2022/07/08 14:04:30;;;;;;;7.18;3.60;;;;;;;19.53;53.72;99952.38;5148169;27;20101;-71
2022/07/08 14:06:57;;;;;;;5.43;3.30;;;;;;;19.49;54.07;99953.59;5148061;27;20059;-72
2022/07/08 14:09:26;;;;;;;4.47;2.90;;;;;;;19.53;53.76;99953.22;5148291;27;20055;-71
2022/07/08 14:11:53;;;;;;;4.88;3.38;;;;;;;19.56;53.76;99944.06;5148011;27;20176;-71
2022/07/08 14:14:20;;;;;;;6.20;3.47;;;;;;;19.45;53.22;99953.00;5130046;27;20115;-71
2022/07/08 14:16:47;;;;;;;4.88;3.42;;;;;;;19.37;53.45;99925.88;5147753;27;20314;-71
2022/07/08 14:19:15;;;;;;;6.20;3.80;;;;;;;18.70;53.13;99812.38;5148441;27;20055;-71
2022/07/08 14:21:42;;;;;;;6.57;3.78;;;;;;;19.51;53.22;99930.13;5130242;27;20126;-71
2022/07/08 14:24:09;;;;;;;4.65;3.35;;;;;;;19.45;53.29;99936.03;5147921;27;20055;-71
2022/07/08 14:26:38;;;;;;;7.47;3.33;;;;;;;19.45;53.26;99920.75;5148088;27;20059;-72
2022/07/08 14:29:05;;;;;;;4.10;3.42;;;;;;;19.64;53.05;99936.19;5147843;27;20050;-71
2022/07/08 14:31:32;;;;;;;6.35;3.75;;;;;;;19.37;52.71;99906.22;5147575;27;20051;-71
2022/07/08 14:33:59;;;;;;;5.55;3.53;;;;;;;19.46;52.65;99925.16;5147241;27;20055;-71
2022/07/08 14:36:27;;;;;;;7.72;4.15;;;;;;;19.44;52.77;99920.88;5147455;27;20059;-70
2022/07/08 14:38:54;;;;;;;6.35;3.17;;;;;;;19.59;52.92;99916.06;5147504;27;20112;-71
2022/07/08 14:41:21;;;;;;;6.72;3.33;;;;;;;19.51;53.06;99933.69;5147457;27;20055;-70
2022/07/08 14:43:50;;;;;;;6.20;3.80;;;;;;;19.49;52.58;99922.19;5147502;27;20051;-70
2022/07/08 14:46:17;;;;;;;5.53;3.42;;;;;;;19.60;52.80;99920.47;5147390;27;20059;-71
2022/07/08 14:48:44;;;;;;;6.55;4.03;;;;;;;19.62;53.20;99934.63;5146945;27;20076;-70
2022/07/08 14:51:11;;;;;;;4.40;3.22;;;;;;;19.60;52.35;99928.53;5147381;27;20323;-70
2022/07/08 14:53:38;;;;;;;5.57;3.42;;;;;;;19.65;53.28;99932.53;5147878;27;20336;-70
2022/07/08 14:56:06;;;;;;;4.47;3.30;;;;;;;16.95;52.74;99580.53;5147421;27;20314;-70
2022/07/08 14:58:34;;;;;;;4.88;3.28;;;;;;;19.67;52.72;99935.94;5147276;27;20055;-70
2022/07/08 15:01:03;;;;;;;5.68;2.83;;;;;;;19.61;52.98;99943.66;5147328;27;20119;-70
2022/07/08 15:03:30;;;;;;;4.95;3.40;;;;;;;19.61;52.53;99925.72;5146946;27;20104;-70
2022/07/08 15:05:57;;;;;;;5.07;3.53;;;;;;;19.60;52.21;99928.53;5146834;27;20119;-70
2022/07/08 15:08:26;;;;;;;4.43;3.33;;;;;;;19.51;52.29;99916.69;5147178;27;20112;-70
2022/07/08 15:10:53;;;;;;;5.90;4.03;;;;;;;19.52;52.95;99931.84;5146800;27;20066;-70
2022/07/08 15:13:21;;;;;;;4.38;3.10;;;;;;;19.48;52.91;99928.56;5146824;27;20051;-70
2022/07/08 15:15:48;;;;;;;4.75;3.17;;;;;;;19.49;52.69;99927.59;5146740;27;20058;-71
2022/07/08 15:18:17;;;;;;;6.82;3.40;;;;;;;19.43;52.73;99924.56;5146497;27;20076;-70
2022/07/08 15:20:44;;;;;;;5.50;3.13;;;;;;;19.43;52.40;99932.63;5147217;27;20062;-70
2022/07/08 15:23:11;;;;;;;7.07;3.72;;;;;;;19.43;52.48;99940.69;5146930;27;20047;-71
2022/07/08 15:25:38;;;;;;;4.97;3.60;;;;;;;19.40;52.82;99931.03;5146922;27;20367;-71
2022/07/08 15:28:06;;;;;;;4.45;2.90;;;;;;;19.50;52.40;99929.28;5146420;27;20104;-70
2022/07/08 15:30:33;;;;;;;4.38;3.10;;;;;;;19.51;52.89;99925.63;5146617;27;20295;-70
2022/07/08 15:33:00;;;;;;;4.28;3.20;;;;;;;19.50;52.58;99920.38;5146696;27;20035;-71
2022/07/08 15:35:29;;;;;;;8.07;3.05;;;;;;;19.40;52.21;99911.38;5146353;27;20059;-70
2022/07/08 15:37:56;;;;;;;6.35;3.13;;;;;;;19.07;52.51;99863.91;5146652;27;20054;-71
2022/07/08 15:40:23;;;;;;;5.20;3.10;;;;;;;19.48;52.65;99942.00;5146665;27;20058;-71
2022/07/08 15:42:51;;;;;;;5.32;3.65;;;;;;;19.34;52.54;99933.34;5146647;27;20051;-71
2022/07/08 15:45:20;;;;;;;4.70;3.25;;;;;;;19.24;52.74;99922.50;5145901;27;20055;-70
2022/07/08 15:47:47;;;;;;;6.65;3.58;;;;;;;19.23;52.14;99924.31;5146094;27;20051;-71
2022/07/08 15:50:15;;;;;;;5.53;3.58;;;;;;;18.94;52.58;99882.88;5146089;27;20240;-70
2022/07/08 15:52:43;;;;;;;5.95;3.85;;;;;;;18.91;52.69;99854.44;5146267;27;20051;-72
2022/07/08 15:55:10;;;;;;;4.20;3.22;;;;;;;19.35;52.51;99943.09;5146441;27;20055;-71
2022/07/08 15:57:39;;;;;;;4.30;3.22;;;;;;;19.39;52.74;99942.75;5146378;27;20112;-71
2022/07/08 16:00:09;;;;;;;5.50;3.33;;;;;;;19.27;52.12;99916.88;5146287;27;20244;-71
2022/07/08 16:02:36;;;;;;;4.20;3.13;;;;;;;18.91;52.79;99870.53;5145818;27;20099;-71
2022/07/08 16:05:03;;;;;;;3.90;2.83;;;;;;;19.32;52.44;99925.41;5128518;27;20055;-71
2022/07/08 16:07:31;;;;;;;4.32;2.90;;;;;;;19.08;53.00;99898.72;5145718;27;20058;-71
2022/07/08 16:10:00;;;;;;;4.05;3.00;;;;;;;19.06;52.64;99902.50;5146212;28;20057;-71
2022/07/08 16:12:31;;;;;;;5.28;2.90;;;;;;;19.17;53.11;99923.97;5145489;28;20241;-71
2022/07/08 16:14:58;;;;;;;4.18;3.22;;;;;;;18.81;53.39;99876.78;5146168;28;20070;-72
2022/07/08 16:17:26;;;;;;;4.60;2.90;;;;;;;19.02;53.14;99901.91;5146458;28;20172;-72
2022/07/08 16:19:53;;;;;;;4.78;3.08;;;;;;;18.45;53.42;99817.00;5145511;28;20051;-71
2022/07/08 16:22:21;;;;;;;4.57;2.95;;;;;;;19.12;53.22;99918.13;5145973;28;20097;-70
2022/07/08 16:24:48;;;;;;;7.18;4.00;;;;;;;19.11;53.05;99922.63;5146183;28;20055;-71
2022/07/08 16:27:18;;;;;;;5.78;2.72;;;;;;;19.12;52.91;99926.19;5146052;28;20062;-71
2022/07/08 16:29:46;;;;;;;4.85;3.00;;;;;;;19.00;53.33;99895.81;5145928;28;20051;-71
2022/07/08 16:32:13;;;;;;;5.57;2.38;;;;;;;18.94;52.88;99914.25;5145805;28;20252;-71
2022/07/08 16:34:41;;;;;;;3.85;2.72;;;;;;;19.12;52.81;99918.97;5145817;28;20065;-71
2022/07/08 16:37:09;;;;;;;4.50;2.50;;;;;;;19.07;53.02;99923.00;5145911;28;20337;-71
2022/07/08 16:39:36;;;;;;;6.90;3.08;;;;;;;16.63;53.32;99522.28;5146146;28;20051;-71
2022/07/08 16:42:04;;;;;;;4.80;3.17;;;;;;;18.85;53.21;99899.72;5145972;28;20055;-71
2022/07/08 16:44:33;;;;;;;3.88;2.67;;;;;;;18.97;53.06;99919.38;5146347;28;20112;-71
2022/07/08 16:47:01;;;;;;;4.20;2.88;;;;;;;18.97;52.88;99919.38;5145617;28;20051;-70
2022/07/08 16:49:28;;;;;;;3.80;2.80;;;;;;;18.73;52.78;99893.53;5145436;28;20111;-71
2022/07/08 16:51:56;;;;;;;3.90;2.38;;;;;;;18.49;52.52;99845.31;5145988;28;20047;-71
2022/07/08 16:54:24;;;;;;;4.38;2.30;;;;;;;18.98;52.35;99929.13;5127517;28;20319;-71
2022/07/08 16:56:51;;;;;;;3.95;2.03;;;;;;;18.91;51.91;99916.19;5127654;27;20123;-71
2022/07/08 16:59:20;;;;;;;2.83;1.98;;;;;;;18.94;52.00;99925.00;5130856;27;20051;-72
2022/07/08 17:01:49;;;;;;;5.88;2.75;;;;;;;18.94;52.09;99920.47;5149398;27;20062;-71
2022/07/08 17:04:19;;;;;;;3.60;2.20;;;;;;;18.65;51.84;99874.50;5166087;27;20047;-71
2022/07/08 17:06:46;;;;;;;3.95;2.30;;;;;;;18.65;52.06;99877.16;5149461;27;20059;-70
2022/07/08 17:09:13;;;;;;;5.63;2.30;;;;;;;18.91;52.09;99909.97;5149665;27;20055;-70
2022/07/08 17:11:41;;;;;;;6.13;2.50;;;;;;;18.98;52.40;99918.41;5149089;27;20059;-71
2022/07/08 17:14:11;;;;;;;5.22;3.00;;;;;;;18.71;52.26;99883.88;5149364;27;20100;-72
2022/07/08 17:16:39;;;;;;;4.03;1.92;;;;;;;18.83;52.10;99926.72;5149763;27;20092;-71
2022/07/08 17:19:08;;;;;;;4.25;1.98;;;;;;;18.76;51.79;99917.44;5149469;27;20051;-72
2022/07/08 17:21:36;;;;;;;3.55;2.35;;;;;;;18.52;51.53;99876.44;5149483;27;20054;-71
2022/07/08 17:24:04;;;;;;;5.72;2.53;;;;;;;18.57;51.80;99895.72;5149014;27;20079;-72
2022/07/08 17:26:31;;;;;;;5.70;2.72;;;;;;;18.42;50.77;99867.38;5148932;27;20055;-71
2022/07/08 17:29:47;;;;;;;5.15;2.88;;;;;;;18.68;51.23;99911.81;5131677;27;20084;-71
2022/07/08 17:31:46;;;;;;;5.93;3.33;;;;;;;18.67;51.41;99915.50;5148729;27;20111;-71
2022/07/08 17:34:15;;;;;;;4.15;2.63;;;;;;;18.58;51.17;99897.44;5148994;27;20074;-71
2022/07/08 17:36:42;;;;;;;4.28;2.40;;;;;;;18.71;51.02;99919.63;5148952;27;20098;-71
2022/07/08 17:39:09;;;;;;;7.07;2.45;;;;;;;18.64;51.28;99918.41;5149000;27;20093;-72
2022/07/08 17:41:36;;;;;;;4.00;2.58;;;;;;;18.60;50.83;99914.28;5148769;27;20371;-71
2022/07/08 17:44:04;;;;;;;4.55;2.53;;;;;;;18.14;51.39;99856.16;5148777;27;20191;-70
2022/07/08 17:46:31;;;;;;;6.47;2.95;;;;;;;18.54;51.41;99917.44;5148600;27;20195;-70
2022/07/08 17:49:01;;;;;;;3.55;2.50;;;;;;;18.54;51.08;99936.22;5149040;27;20108;-71
2022/07/08 17:51:33;;;;;;;3.97;2.45;;;;;;;18.51;51.02;99929.25;5165340;27;20084;-69
2022/07/08 17:54:01;;;;;;;6.80;3.13;;;;;;;18.46;51.08;99933.25;5147864;27;20047;-71
2022/07/08 17:56:28;;;;;;;4.68;2.60;;;;;;;18.46;51.43;99938.63;5148439;27;20069;-70
2022/07/08 17:58:56;;;;;;;4.03;2.30;;;;;;;18.46;51.04;99934.13;5148613;27;20111;-70
2022/07/08 18:01:23;;;;;;;5.88;2.70;;;;;;;18.09;50.93;99874.44;5130406;27;20097;-70
2022/07/08 18:03:50;;;;;;;3.92;2.42;;;;;;;18.37;50.87;99945.56;5148485;27;20058;-70
2022/07/08 18:06:18;;;;;;;5.53;2.65;;;;;;;18.37;51.60;99942.03;5148292;27;20059;-70
2022/07/08 18:08:46;;;;;;;3.55;2.25;;;;;;;18.39;51.18;99938.25;5148330;27;20038;-70
2022/07/08 18:11:14;;;;;;;3.83;2.60;;;;;;;18.39;51.53;99943.63;5147785;27;20112;-71
2022/07/08 18:13:41;;;;;;;4.72;2.55;;;;;;;18.37;51.36;99948.25;5147406;27;20051;-71
2022/07/08 18:16:09;;;;;;;5.93;2.80;;;;;;;18.31;51.14;99945.19;5148114;27;20051;-70
2022/07/08 18:18:36;;;;;;;5.40;2.20;;;;;;;18.31;51.35;99951.41;5147634;27;20055;-71
2022/07/08 18:21:04;;;;;;;4.18;2.65;;;;;;;18.25;51.26;99950.06;5148086;27;20195;-70
2022/07/08 18:23:31;;;;;;;6.30;3.05;;;;;;;18.20;51.81;99949.56;5148035;27;20055;-70
2022/07/08 18:26:00;;;;;;;4.63;2.33;;;;;;;18.23;51.48;99956.53;5147866;27;20119;-70
2022/07/08 18:28:28;;;;;;;4.90;3.55;;;;;;;18.05;51.74;99923.94;5148273;27;20253;-70
2022/07/08 18:30:55;;;;;;;5.63;3.15;;;;;;;18.23;51.65;99948.47;5148482;27;20061;-70
2022/07/08 18:33:23;;;;;;;9.70;5.68;;;;;;;18.07;51.51;99923.81;5147604;27;20371;-70
2022/07/08 18:35:50;;;;;;;6.28;4.50;;;;;;;18.17;51.60;99943.59;5147751;27;20042;-71
2022/07/08 18:38:17;;;;;;;7.55;4.07;;;;;;;18.12;52.11;99943.09;5148037;27;20047;-71
2022/07/08 18:40:44;;;;;;;7.20;3.95;;;;;;;17.86;51.92;99899.50;5147563;27;20058;-70
2022/07/08 18:43:13;;;;;;;4.88;3.70;;;;;;;17.92;52.14;99931.19;5147668;27;20054;-70
2022/07/08 18:45:40;;;;;;;5.90;3.17;;;;;;;17.97;52.11;99938.91;5147860;27;20039;-70
2022/07/08 18:48:08;;;;;;;6.13;4.07;;;;;;;17.86;52.32;99920.94;5147811;27;20100;-70
2022/07/08 18:50:36;;;;;;;4.85;3.13;;;;;;;17.96;52.27;99948.75;5147420;27;20100;-70
2022/07/08 18:53:03;;;;;;;6.00;3.47;;;;;;;17.94;52.16;99956.06;5147212;27;20051;-70
2022/07/08 18:55:30;;;;;;;5.80;2.95;;;;;;;17.94;52.49;99956.94;5147724;27;20051;-72
2022/07/08 18:57:58;;;;;;;4.97;2.63;;;;;;;17.52;52.39;99891.31;5147574;27;20314;-70
2022/07/08 19:00:26;;;;;;;5.18;3.00;;;;;;;17.92;52.34;99956.19;5147488;27;20051;-70
2022/07/08 19:02:54;;;;;;;4.57;2.63;;;;;;;17.44;52.24;99890.16;5147734;27;20062;-70
2022/07/08 19:05:21;;;;;;;5.40;3.25;;;;;;;17.96;52.17;99959.50;5147505;27;20299;-70
2022/07/08 19:07:49;;;;;;;3.47;2.42;;;;;;;17.31;52.27;99868.81;5147299;27;20054;-70
2022/07/08 19:10:16;;;;;;;5.82;2.92;;;;;;;17.67;51.67;99942.06;5147339;27;20233;-70
2022/07/08 19:12:43;;;;;;;4.43;2.47;;;;;;;17.89;52.22;99968.97;5146829;27;20066;-70
2022/07/08 19:15:11;;;;;;;5.93;3.67;;;;;;;17.76;52.17;99958.31;5147235;27;20055;-70
2022/07/08 19:17:40;;;;;;;5.82;4.45;;;;;;;17.88;51.82;99980.66;5146816;27;20047;-70
2022/07/08 19:20:09;;;;;;;6.20;3.42;;;;;;;17.61;52.03;99952.28;5146915;27;20058;-70
2022/07/08 19:22:36;;;;;;;5.30;3.88;;;;;;;17.91;51.70;99994.72;5146743;27;20325;-70
2022/07/08 19:25:04;;;;;;;5.07;3.38;;;;;;;17.91;51.87;99994.72;5147130;27;20055;-69
2022/07/08 19:27:31;;;;;;;4.47;3.13;;;;;;;17.22;51.72;99885.56;5146675;27;20059;-70
2022/07/08 19:29:58;;;;;;;5.03;2.92;;;;;;;17.02;51.81;99849.50;5146893;27;20051;-70
2022/07/08 19:32:27;;;;;;;4.78;3.20;;;;;;;17.89;51.84;100006.50;5146558;27;20051;-72
2022/07/08 19:34:56;;;;;;;3.92;3.28;;;;;;;17.47;51.75;99949.75;5146860;27;20364;-70
2022/07/08 19:37:23;;;;;;;6.78;2.67;;;;;;;17.90;51.42;100006.41;5146935;27;20062;-70
2022/07/08 19:39:50;;;;;;;4.05;2.30;;;;;;;17.83;51.31;100010.50;5146562;27;20077;-70
2022/07/08 19:42:17;;;;;;;3.58;2.55;;;;;;;17.88;51.56;100010.16;5146675;27;20051;-69
2022/07/08 19:44:47;;;;;;;4.75;2.38;;;;;;;17.06;51.25;99876.91;5145783;27;20302;-69
2022/07/08 19:47:14;;;;;;;6.00;2.75;;;;;;;17.87;51.33;100016.50;5146919;27;20054;-69
2022/07/08 19:49:41;;;;;;;4.57;2.75;;;;;;;17.90;51.59;100013.59;5146510;27;20055;-70
2022/07/08 19:52:10;;;;;;;7.18;2.70;;;;;;;17.91;51.37;100016.16;5146547;27;20046;-69
2022/07/08 19:54:37;;;;;;;5.63;2.80;;;;;;;17.89;51.83;100014.56;5146136;27;20061;-69
2022/07/08 19:57:05;;;;;;;4.25;2.72;;;;;;;17.90;52.01;100009.09;5146314;27;20059;-70
2022/07/08 19:59:32;;;;;;;4.32;2.53;;;;;;;17.89;52.24;100019.91;5146284;27;20261;-70
2022/07/08 20:01:59;;;;;;;4.90;2.83;;;;;;;16.97;51.77;99886.47;5146452;27;20210;-69
2022/07/08 20:04:27;;;;;;;4.65;2.38;;;;;;;17.90;51.71;100021.63;5146456;27;20115;-70
2022/07/08 20:06:54;;;;;;;4.57;2.55;;;;;;;17.82;51.87;100016.84;5146147;27;20055;-69
2022/07/08 20:09:26;;;;;;;4.72;2.92;;;;;;;17.39;52.04;99945.94;5146295;27;20314;-70
2022/07/08 20:11:53;;;;;;;5.07;2.78;;;;;;;17.80;51.98;100023.28;5146113;27;20051;-70
2022/07/08 20:14:24;;;;;;;5.45;2.92;;;;;;;17.63;51.66;100000.41;5146018;27;20075;-71
2022/07/08 20:16:52;;;;;;;5.18;2.65;;;;;;;17.81;51.86;100020.50;5146378;28;20060;-70
2022/07/08 20:19:20;;;;;;;3.88;2.50;;;;;;;17.79;51.80;100017.06;5145479;28;20043;-70
2022/07/08 20:21:47;;;;;;;5.25;3.40;;;;;;;17.83;51.63;100026.59;5146314;28;20087;-69
2022/07/08 20:24:14;;;;;;;3.45;2.15;;;;;;;17.82;51.74;100016.84;5146395;27;20111;-70
2022/07/08 20:26:43;;;;;;;4.80;3.28;;;;;;;17.83;51.46;100023.06;5146443;27;20134;-70
2022/07/08 20:29:17;;;;;;;4.75;3.00;;;;;;;17.77;51.73;100021.69;5146349;27;20063;-71
2022/07/08 20:31:44;;;;;;;7.38;3.67;;;;;;;17.76;51.96;100014.63;5146497;27;20194;-71
2022/07/08 20:34:11;;;;;;;6.22;2.63;;;;;;;17.80;52.09;100026.81;5149319;27;20035;-70
2022/07/08 20:36:39;;;;;;;4.38;2.65;;;;;;;17.71;52.26;100022.16;5150385;27;20051;-70
2022/07/08 20:39:06;;;;;;;4.07;2.55;;;;;;;17.72;51.80;100026.53;5150348;27;20371;-70
2022/07/08 20:44:20;;;;;;;5.82;2.35;;;;;;;17.78;52.10;100028.78;5150715;27;20054;-72
2022/07/08 20:46:47;;;;;;;5.75;3.28;;;;;;;17.74;51.41;100032.66;5149327;27;20051;-70
2022/07/08 20:49:14;;;;;;;3.80;2.25;;;;;;;17.79;52.04;100024.25;5150285;27;20100;-71
2022/07/08 20:51:42;;;;;;;5.20;4.05;;;;;;;17.78;52.09;100019.88;5148993;27;20099;-70
2022/07/08 20:54:10;;;;;;;5.82;4.28;;;;;;;17.80;52.15;100021.47;5149995;27;20053;-71
2022/07/08 20:56:37;;;;;;;5.95;4.60;;;;;;;17.81;52.20;100025.00;5149721;27;20059;-70
2022/07/08 20:59:04;;;;;;;12.55;7.57;;;;;;;17.83;51.79;100017.69;5150239;27;20116;-71
2022/07/08 21:01:33;;;;;;;9.93;7.25;;;;;;;17.84;51.62;100019.41;5148916;27;20215;-70
2022/07/08 21:04:00;;;;;;;5.78;3.88;;;;;;;17.60;52.16;100004.16;5150283;27;20051;-70
2022/07/08 21:06:28;;;;;;;5.40;3.35;;;;;;;17.75;51.67;100014.72;5149870;27;20176;-71
2022/07/08 21:08:56;;;;;;;4.10;2.45;;;;;;;17.53;52.39;99994.84;5150028;27;20070;-70
2022/07/08 21:11:23;;;;;;;5.40;3.83;;;;;;;17.72;51.80;100015.81;5149518;27;20046;-70
2022/07/08 21:13:51;;;;;;;8.77;6.05;;;;;;;17.52;52.25;99995.81;5149909;27;20055;-71
2022/07/08 21:16:18;;;;;;;7.57;4.95;;;;;;;17.70;52.45;100023.13;5149665;27;20275;-71
2022/07/08 21:18:47;;;;;;;4.93;3.42;;;;;;;16.96;52.35;99904.38;5150261;27;20295;-71
2022/07/08 21:21:15;;;;;;;5.18;3.30;;;;;;;17.69;52.40;100029.44;5149345;27;20051;-71
2022/07/08 21:23:42;;;;;;;3.42;2.40;;;;;;;17.71;52.66;100024.81;5149843;27;20114;-71
2022/07/08 21:26:09;;;;;;;6.72;3.08;;;;;;;17.73;52.24;100024.72;5150115;27;20080;-71
2022/07/08 21:28:36;;;;;;;4.85;3.45;;;;;;;17.54;52.46;100001.06;5149380;27;20055;-71
2022/07/08 21:31:03;;;;;;;5.15;3.97;;;;;;;17.73;52.61;100025.56;5149870;27;20302;-70
2022/07/08 21:33:31;;;;;;;5.47;2.80;;;;;;;17.76;52.57;100021.81;5149118;27;20051;-70
2022/07/08 21:35:59;;;;;;;5.15;3.30;;;;;;;17.82;52.25;100022.22;5148909;27;20055;-70
2022/07/08 21:38:27;;;;;;;3.92;2.75;;;;;;;16.91;52.58;99865.50;5149016;27;20055;-71
2022/07/08 21:40:54;;;;;;;4.28;2.45;;;;;;;17.76;52.58;100011.09;5149347;27;20055;-70
2022/07/08 21:43:21;;;;;;;5.35;3.22;;;;;;;17.70;52.72;100011.53;5148874;27;20066;-70
2022/07/08 21:45:49;;;;;;;3.92;2.88;;;;;;;17.60;53.50;100000.63;5149199;27;20096;-71
2022/07/08 21:48:16;;;;;;;4.80;3.25;;;;;;;17.69;53.22;100009.84;5149170;27;20051;-71
2022/07/08 21:50:44;;;;;;;6.13;3.58;;;;;;;17.71;52.94;100008.75;5149185;27;20119;-71
2022/07/08 21:53:12;;;;;;;9.10;6.03;;;;;;;17.67;53.25;100003.72;5148556;27;20063;-71
2022/07/08 21:55:40;;;;;;;5.80;4.80;;;;;;;17.60;53.67;99996.09;5148564;27;20084;-71
2022/07/08 21:58:07;;;;;;;5.15;3.92;;;;;;;17.44;53.65;99986.63;5148828;27;20059;-71
2022/07/08 22:00:35;;;;;;;5.03;3.20;;;;;;;17.67;53.51;100006.41;5148756;27;20062;-70
2022/07/08 22:03:02;;;;;;;4.28;3.33;;;;;;;17.68;53.56;100003.63;5148560;27;20112;-71
2022/07/08 22:05:29;;;;;;;5.93;3.88;;;;;;;17.65;53.70;100003.00;5148718;27;20245;-71
2022/07/08 22:07:57;;;;;;;7.75;6.10;;;;;;;17.56;54.12;99997.31;5148522;27;20066;-71
2022/07/08 22:10:25;;;;;;;10.98;9.32;;;;;;;17.47;53.79;99976.53;5148460;27;20100;-70
2022/07/08 22:12:53;;;;;;;9.85;6.05;;;;;;;17.61;53.84;99994.31;5107622;28;20091;-70
2022/07/08 22:15:20;;;;;;;7.70;4.47;;;;;;;17.54;54.63;99995.72;5107056;28;20056;-70
2022/07/08 22:17:47;;;;;;;5.28;3.58;;;;;;;17.57;54.31;99988.28;5107068;28;20063;-70
2022/07/08 22:20:14;;;;;;;5.57;3.08;;;;;;;17.54;54.48;99993.03;5107086;28;20055;-70
2022/07/08 22:22:42;;;;;;;4.18;2.90;;;;;;;17.58;53.88;100000.72;5107253;28;20323;-71
2022/07/08 22:25:10;;;;;;;4.30;3.03;;;;;;;17.54;54.00;99996.56;5107165;28;20060;-70
2022/07/08 22:27:40;;;;;;;5.03;2.55;;;;;;;17.49;54.45;99995.19;5107260;28;20048;-70
2022/07/08 22:30:08;;;;;;;12.38;9.40;;;;;;;17.55;53.96;100000.09;5107191;28;20052;-70
2022/07/08 22:32:35;;;;;;;10.13;4.60;;;;;;;17.49;54.34;99998.72;5107084;28;20109;-71
2022/07/08 22:35:02;;;;;;;5.32;3.42;;;;;;;17.34;54.28;99977.56;5107062;28;20121;-70
2022/07/08 22:37:29;;;;;;;4.15;2.92;;;;;;;17.48;54.77;100002.38;5106715;28;20043;-71
2022/07/08 22:39:57;;;;;;;4.40;2.80;;;;;;;17.52;54.37;100008.38;5106468;28;20121;-70
2022/07/08 22:42:24;;;;;;;5.50;3.08;;;;;;;17.43;54.76;100006.34;5106517;28;20060;-70
2022/07/08 22:44:52;;;;;;;4.72;2.70;;;;;;;17.46;54.17;100007.00;5106864;28;20257;-70
2022/07/08 22:47:20;;;;;;;4.65;2.90;;;;;;;17.43;54.53;99998.31;5106861;28;20052;-70
2022/07/08 22:49:47;;;;;;;4.10;2.90;;;;;;;17.42;54.65;100001.97;5106447;28;20055;-70
2022/07/08 22:52:14;;;;;;;3.20;2.30;;;;;;;17.44;54.46;100000.88;5106637;28;20097;-71
2022/07/08 22:54:42;;;;;;;4.18;2.65;;;;;;;17.39;54.51;99999.50;5106616;28;20048;-70
2022/07/08 22:57:10;;;;;;;3.35;2.55;;;;;;;17.39;54.49;99996.84;5105877;28;20056;-70
2022/07/08 22:59:37;;;;;;;4.25;2.55;;;;;;;17.38;54.85;99993.31;5106410;28;20109;-71
2022/07/08 23:02:07;;;;;;;4.43;2.75;;;;;;;17.37;54.84;100004.97;5106416;28;20098;-70
2022/07/08 23:04:36;;;;;;;3.67;2.90;;;;;;;17.16;54.88;99972.53;5106441;28;20349;-71
2022/07/08 23:07:03;;;;;;;3.72;2.60;;;;;;;17.16;54.89;99979.72;5106083;28;20048;-71
2022/07/08 23:09:31;;;;;;;4.63;2.80;;;;;;;17.36;54.75;100000.59;5106129;28;20362;-71
2022/07/08 23:11:58;;;;;;;6.20;3.38;;;;;;;17.32;54.86;100007.16;5131958;27;20100;-71
2022/07/08 23:14:25;;;;;;;4.07;2.72;;;;;;;14.85;54.78;99587.97;5147289;27;20059;-71
2022/07/08 23:16:53;;;;;;;5.90;4.88;;;;;;;17.35;54.83;100012.28;5146826;27;20062;-70
2022/07/08 23:19:22;;;;;;;4.47;3.20;;;;;;;17.35;54.80;100003.38;5147061;27;20076;-70
2022/07/08 23:21:49;;;;;;;3.58;2.65;;;;;;;17.22;55.28;100004.28;5147251;27;20055;-71
2022/07/08 23:24:16;;;;;;;4.45;2.67;;;;;;;17.18;55.00;99983.16;5146793;27;20071;-71
2022/07/08 23:26:43;;;;;;;4.32;2.70;;;;;;;17.24;54.81;99996.13;5146794;27;20112;-71
2022/07/08 23:29:10;;;;;;;6.47;3.88;;;;;;;17.24;54.93;99994.31;5147066;27;20363;-71
2022/07/08 23:31:38;;;;;;;5.22;3.03;;;;;;;17.19;54.92;99991.06;5146912;27;20055;-71
2022/07/08 23:34:05;;;;;;;4.25;2.75;;;;;;;17.14;55.15;99995.91;5147145;27;20259;-71
2022/07/08 23:36:34;;;;;;;4.63;3.58;;;;;;;17.17;55.37;99990.31;5147117;27;20092;-71
2022/07/08 23:39:01;;;;;;;4.50;3.03;;;;;;;17.19;54.96;99990.22;5147036;27;20374;-70
2022/07/08 23:41:28;;;;;;;4.25;3.30;;;;;;;17.03;55.08;99966.38;5146459;27;20058;-70
2022/07/08 23:43:55;;;;;;;6.50;3.08;;;;;;;17.17;55.41;99986.78;5146567;27;20055;-71
2022/07/08 23:46:23;;;;;;;6.03;2.80;;;;;;;17.22;55.08;99993.56;5146740;27;20043;-71
2022/07/08 23:48:50;;;;;;;4.70;2.95;;;;;;;17.18;55.00;99989.34;5146560;27;20055;-71